Preview of NWS' New Version of Forecast
This preview is not operational and should not be used for support decisions.

Terminal Aerodrome Forecast (TAF)

Issued by National Weather Service (NWS)

                            
000
FTUS43 KDMX 201624 AAA
TAFALO
TAF AMD
KALO 201624Z 2016/2112 16012KT P6SM SCT250
     FM210400 16009KT P6SM BKN250
     FM211000 17012G18KT P6SM BKN012=